createdAt,value
2023-02-03T00:02:15.532Z,7.74
2023-02-03T00:04:42.719Z,7.75
2023-02-03T00:07:14.352Z,7.79
2023-02-03T00:09:41.957Z,7.83
2023-02-03T00:12:10.086Z,8.07
2023-02-03T00:14:40.264Z,8.08
2023-02-03T00:17:07.464Z,7.86
2023-02-03T00:19:34.898Z,7.86
2023-02-03T00:22:02.013Z,7.92
2023-02-03T00:24:29.133Z,7.90
2023-02-03T00:26:56.399Z,8.09
2023-02-03T00:29:26.252Z,7.98
2023-02-03T00:31:54.509Z,8.06
2023-02-03T00:34:22.886Z,8.07
2023-02-03T00:36:50.287Z,8.20
2023-02-03T00:39:17.388Z,8.16
2023-02-03T00:41:45.176Z,7.88
2023-02-03T00:44:12.158Z,8.10
2023-02-03T00:46:39.838Z,7.86
2023-02-03T00:49:07.152Z,8.06
2023-02-03T00:51:35.355Z,7.99
2023-02-03T00:54:02.482Z,7.79
2023-02-03T00:56:29.803Z,7.79
2023-02-03T00:58:57.011Z,7.94
2023-02-03T01:01:25.037Z,8.03
2023-02-03T01:03:52.045Z,7.81
2023-02-03T01:06:21.075Z,8.05
2023-02-03T01:08:50.408Z,7.86
2023-02-03T01:11:21.309Z,8.21
2023-02-03T01:13:49.079Z,7.89
2023-02-03T01:16:19.278Z,7.88
2023-02-03T01:18:47.932Z,7.99
2023-02-03T01:21:24.494Z,8.21
2023-02-03T01:23:52.269Z,8.03
2023-02-03T01:26:22.794Z,8.09
2023-02-03T01:28:57.113Z,8.00
2023-02-03T01:31:27.815Z,8.10
2023-02-03T01:33:55.879Z,7.88
2023-02-03T01:36:25.002Z,8.29
2023-02-03T01:38:52.149Z,8.08
2023-02-03T01:41:26.211Z,8.20
2023-02-03T01:43:56.439Z,8.04
2023-02-03T01:46:40.632Z,8.35
2023-02-03T01:49:10.537Z,8.09
2023-02-03T01:51:41.004Z,8.27
2023-02-03T01:54:23.895Z,8.10
2023-02-03T01:57:02.224Z,8.01
2023-02-03T01:59:31.839Z,8.03
2023-02-03T02:02:00.209Z,8.22
2023-02-03T02:04:37.991Z,8.20
2023-02-03T02:07:06.585Z,8.12
2023-02-03T02:09:35.014Z,8.14
2023-02-03T02:12:02.952Z,8.06
2023-02-03T02:14:29.943Z,8.07
2023-02-03T02:17:12.029Z,8.09
2023-02-03T02:20:03.283Z,8.16
2023-02-03T02:22:32.994Z,8.36
2023-02-03T02:25:07.276Z,8.04
2023-02-03T02:27:54.794Z,8.38
2023-02-03T02:30:31.063Z,8.44
2023-02-03T02:33:29.301Z,8.45
2023-02-03T02:36:11.389Z,8.45
2023-02-03T02:39:13.121Z,8.49
2023-02-03T02:41:45.083Z,8.38
2023-02-03T02:44:20.856Z,8.15
2023-02-03T02:46:51.972Z,8.11
2023-02-03T02:49:31.074Z,8.46
2023-02-03T02:52:03.635Z,8.21
2023-02-03T02:54:32.403Z,8.16
2023-02-03T02:57:03.952Z,8.31
2023-02-03T02:59:31.346Z,8.10
2023-02-03T03:01:59.253Z,8.46
2023-02-03T03:04:30.353Z,8.10
2023-02-03T03:07:05.340Z,8.34
2023-02-03T03:10:01.325Z,8.17
2023-02-03T03:12:42.141Z,8.12
2023-02-03T03:15:14.702Z,8.17
2023-02-03T03:17:48.611Z,8.45
2023-02-03T03:20:22.296Z,8.19
2023-02-03T03:22:57.521Z,8.32
2023-02-03T03:25:35.549Z,8.32
2023-02-03T03:28:10.940Z,8.24
2023-02-03T03:30:39.518Z,8.21
2023-02-03T03:33:08.881Z,8.42
2023-02-03T03:36:09.661Z,8.52
2023-02-03T03:38:41.346Z,8.36
2023-02-03T03:41:38.304Z,8.15
2023-02-03T03:44:10.492Z,8.46
2023-02-03T03:46:46.997Z,8.32
2023-02-03T03:49:16.815Z,8.11
2023-02-03T03:51:49.395Z,8.39
2023-02-03T03:54:19.481Z,8.48
2023-02-03T03:56:58.861Z,8.52
2023-02-03T03:59:29.625Z,8.51
2023-02-03T04:02:04.550Z,8.27
2023-02-03T04:04:38.072Z,8.13
2023-02-03T04:07:04.959Z,8.11
2023-02-03T04:09:32.476Z,8.18
2023-02-03T04:12:02.558Z,8.37
2023-02-03T04:14:57.047Z,8.18
2023-02-03T04:17:23.827Z,8.24
2023-02-03T04:19:51.128Z,8.18
2023-02-03T04:22:17.910Z,8.11
2023-02-03T04:24:45.052Z,8.40
2023-02-03T04:27:13.250Z,8.55
2023-02-03T04:29:40.243Z,8.44
2023-02-03T04:32:07.219Z,8.48
2023-02-03T04:34:35.742Z,8.14
2023-02-03T04:37:03.177Z,8.16
2023-02-03T04:39:30.163Z,8.34
2023-02-03T04:41:58.330Z,8.11
2023-02-03T04:44:25.259Z,8.49
2023-02-03T04:46:52.432Z,8.11
2023-02-03T04:49:19.587Z,8.27
2023-02-03T04:51:50.740Z,8.13
2023-02-03T04:54:17.818Z,8.33
2023-02-03T04:56:47.311Z,8.45
2023-02-03T04:59:14.424Z,8.17
2023-02-03T05:01:41.569Z,8.11
2023-02-03T05:04:08.957Z,8.21
2023-02-03T05:06:35.997Z,8.26
2023-02-03T05:09:03.151Z,8.20
2023-02-03T05:11:30.515Z,8.40
2023-02-03T05:13:57.864Z,8.11
2023-02-03T05:16:25.020Z,8.35
2023-02-03T05:18:53.199Z,8.07
2023-02-03T05:21:20.516Z,8.05
2023-02-03T05:23:48.161Z,8.03
2023-02-03T05:26:15.018Z,8.18
2023-02-03T05:28:42.114Z,8.05
2023-02-03T05:31:09.181Z,8.42
2023-02-03T05:33:36.214Z,8.17
2023-02-03T05:36:03.577Z,8.00
2023-02-03T05:38:30.552Z,8.16
2023-02-03T05:41:16.052Z,8.12
2023-02-03T05:43:42.956Z,8.00
2023-02-03T05:46:10.355Z,8.08
2023-02-03T05:48:38.028Z,7.95
2023-02-03T05:51:05.565Z,8.15
2023-02-03T05:53:32.555Z,7.98
2023-02-03T05:56:00.551Z,8.20
2023-02-03T05:58:28.726Z,8.04
2023-02-03T06:00:56.047Z,7.93
2023-02-03T06:03:23.396Z,8.15
2023-02-03T06:05:51.734Z,8.01
2023-02-03T06:08:19.983Z,7.92
2023-02-03T06:10:46.978Z,8.08
2023-02-03T06:13:17.659Z,7.90
2023-02-03T06:15:45.378Z,7.91
2023-02-03T06:18:12.293Z,8.03
2023-02-03T06:20:39.373Z,7.97
2023-02-03T06:23:06.674Z,7.97
2023-02-03T06:25:33.910Z,7.83
2023-02-03T06:28:01.052Z,7.96
2023-02-03T06:30:28.442Z,7.82
2023-02-03T06:32:55.659Z,7.81
2023-02-03T06:35:22.484Z,7.71
2023-02-03T06:37:49.467Z,7.72
2023-02-03T06:40:16.532Z,7.92
2023-02-03T06:42:47.779Z,7.76
2023-02-03T06:45:15.391Z,7.87
2023-02-03T06:47:43.619Z,8.13
2023-02-03T06:50:13.223Z,8.16
2023-02-03T06:52:40.449Z,7.98
2023-02-03T06:55:07.887Z,8.07
2023-02-03T06:57:35.080Z,7.93
2023-02-03T07:00:02.423Z,8.25
2023-02-03T07:02:29.615Z,8.08
2023-02-03T07:04:56.996Z,7.95
2023-02-03T07:07:26.144Z,8.25
2023-02-03T07:09:53.363Z,7.89
2023-02-03T07:12:20.294Z,7.89
2023-02-03T07:14:47.419Z,8.11
2023-02-03T07:17:14.897Z,8.32
2023-02-03T07:19:42.098Z,8.12
2023-02-03T07:22:11.043Z,8.00
2023-02-03T07:24:38.301Z,8.10
2023-02-03T07:27:05.548Z,8.01
2023-02-03T07:29:35.537Z,8.07
2023-02-03T07:32:03.337Z,8.19
2023-02-03T07:34:30.653Z,8.08
2023-02-03T07:36:58.090Z,8.31
2023-02-03T07:39:25.077Z,8.02
2023-02-03T07:41:52.322Z,8.15
2023-02-03T07:44:19.101Z,8.03
2023-02-03T07:46:46.257Z,8.07
2023-02-03T07:49:13.833Z,8.48
2023-02-03T07:51:40.748Z,8.30
2023-02-03T07:54:09.275Z,8.14
2023-02-03T07:56:36.910Z,8.17
2023-02-03T07:59:04.157Z,8.04
2023-02-03T08:01:31.701Z,8.05
2023-02-03T08:03:59.340Z,8.08
2023-02-03T08:06:26.475Z,8.18
2023-02-03T08:08:54.350Z,8.18
2023-02-03T08:11:21.678Z,8.35
2023-02-03T08:13:48.646Z,8.41
2023-02-03T08:16:15.978Z,8.55
2023-02-03T08:18:43.543Z,8.48
2023-02-03T08:21:11.403Z,8.66
2023-02-03T08:23:38.615Z,8.35
2023-02-03T08:26:06.148Z,8.52
2023-02-03T08:28:33.302Z,8.27
2023-02-03T08:31:01.798Z,8.29
2023-02-03T08:33:29.276Z,8.44
2023-02-03T08:35:57.059Z,8.44
2023-02-03T08:38:26.733Z,8.22
2023-02-03T08:40:54.151Z,8.32
2023-02-03T08:43:21.499Z,8.32
2023-02-03T08:45:49.147Z,8.32
2023-02-03T08:48:16.172Z,8.40
2023-02-03T08:50:55.139Z,8.34
2023-02-03T08:53:25.841Z,8.35
2023-02-03T08:55:54.103Z,8.40
2023-02-03T08:58:21.415Z,8.41
2023-02-03T09:00:50.244Z,8.61
2023-02-03T09:03:20.571Z,8.58
2023-02-03T09:05:47.871Z,8.47
2023-02-03T09:08:15.131Z,8.56
2023-02-03T09:10:42.409Z,8.56
2023-02-03T09:13:13.013Z,8.88
2023-02-03T09:15:44.547Z,8.64
2023-02-03T09:18:14.452Z,8.75
2023-02-03T09:20:52.083Z,8.62
2023-02-03T09:23:19.193Z,8.72
2023-02-03T09:25:48.600Z,8.75
2023-02-03T09:28:24.586Z,8.73
2023-02-03T09:30:51.776Z,8.64
2023-02-03T09:33:20.335Z,8.72
2023-02-03T09:35:54.698Z,8.63
2023-02-03T09:38:22.171Z,8.60
2023-02-03T09:41:11.220Z,8.98
2023-02-03T09:43:54.586Z,9.04
2023-02-03T09:46:30.931Z,8.84
2023-02-03T09:49:15.019Z,8.61
2023-02-03T09:51:50.096Z,8.64
2023-02-03T09:54:39.788Z,8.69
2023-02-03T09:57:16.441Z,8.72
2023-02-03T09:59:43.395Z,8.76
2023-02-03T10:02:10.513Z,9.05
2023-02-03T10:04:57.327Z,8.70
2023-02-03T10:07:51.589Z,9.05
2023-02-03T10:10:35.734Z,8.96
2023-02-03T10:13:11.821Z,9.06
2023-02-03T10:15:49.471Z,9.07
2023-02-03T10:18:22.976Z,8.98
2023-02-03T10:21:07.452Z,8.89
2023-02-03T10:23:39.228Z,8.78
2023-02-03T10:26:26.240Z,8.71
2023-02-03T10:29:14.278Z,8.89
2023-02-03T10:31:44.265Z,8.92
2023-02-03T10:34:20.948Z,9.14
2023-02-03T10:37:29.316Z,9.21
2023-02-03T10:39:59.029Z,9.09
2023-02-03T10:42:51.706Z,8.86
2023-02-03T10:45:20.869Z,9.11
2023-02-03T10:47:53.764Z,8.94
2023-02-03T10:50:32.037Z,8.85
2023-02-03T10:53:21.728Z,8.86
2023-02-03T10:56:12.000Z,8.84
2023-02-03T10:58:46.475Z,8.84
2023-02-03T11:01:16.233Z,9.14
2023-02-03T11:03:58.868Z,9.01
2023-02-03T11:06:26.681Z,8.82
2023-02-03T11:08:55.080Z,8.93
2023-02-03T11:11:32.657Z,9.06
2023-02-03T11:14:05.470Z,9.20
2023-02-03T11:16:39.259Z,8.92
2023-02-03T11:19:17.538Z,8.91
2023-02-03T11:21:51.585Z,8.91
2023-02-03T11:24:28.868Z,8.90
2023-02-03T11:27:06.615Z,9.21
2023-02-03T11:29:45.227Z,9.12
2023-02-03T11:32:38.104Z,8.94
2023-02-03T11:35:15.412Z,9.05
2023-02-03T11:37:45.745Z,8.69
2023-02-03T11:40:29.951Z,8.58
2023-02-03T11:43:01.831Z,8.78
2023-02-03T11:45:35.659Z,8.41
2023-02-03T11:48:22.210Z,8.42
2023-02-03T11:51:27.305Z,8.69
2023-02-03T11:53:57.536Z,8.64
2023-02-03T11:56:41.363Z,8.35
2023-02-03T11:59:25.849Z,8.34
2023-02-03T12:02:14.634Z,8.72
2023-02-03T12:05:01.190Z,8.48
2023-02-03T12:08:10.106Z,8.44
2023-02-03T12:11:27.856Z,8.45
2023-02-03T12:14:27.792Z,8.82
2023-02-03T12:17:30.240Z,8.78
2023-02-03T12:20:24.681Z,8.39
2023-02-03T12:23:33.506Z,8.47
2023-02-03T12:26:18.963Z,8.40
2023-02-03T12:29:11.011Z,8.35
2023-02-03T12:31:59.359Z,8.76
2023-02-03T12:34:33.776Z,8.75
2023-02-03T12:37:15.693Z,8.55
2023-02-03T12:39:49.085Z,8.42
2023-02-03T12:42:37.474Z,8.64
2023-02-03T12:45:19.595Z,8.47
2023-02-03T12:47:57.159Z,8.78
2023-02-03T12:50:46.200Z,8.67
2023-02-03T12:53:16.508Z,8.39
2023-02-03T12:55:52.990Z,8.42
2023-02-03T12:58:25.406Z,8.45
2023-02-03T13:01:05.213Z,8.48
2023-02-03T13:03:32.075Z,8.86
2023-02-03T13:06:16.901Z,8.60
2023-02-03T13:08:53.876Z,8.79
2023-02-03T13:11:52.202Z,8.52
2023-02-03T13:14:40.930Z,8.68
2023-02-03T13:17:25.679Z,8.52
2023-02-03T13:19:58.684Z,8.40
2023-02-03T13:22:26.348Z,8.50
2023-02-03T13:25:23.819Z,8.18
2023-02-03T13:28:29.967Z,8.52
2023-02-03T13:31:00.003Z,8.55
2023-02-03T13:33:49.099Z,8.19
2023-02-03T13:36:50.548Z,8.47
2023-02-03T13:39:17.649Z,8.52
2023-02-03T13:41:52.561Z,8.26
2023-02-03T13:44:26.999Z,8.04
2023-02-03T13:46:54.767Z,8.47
2023-02-03T13:49:30.602Z,8.22
2023-02-03T13:52:01.605Z,8.17
2023-02-03T13:54:44.174Z,8.15
2023-02-03T13:57:28.038Z,8.13
2023-02-03T13:59:55.922Z,8.21
2023-02-03T14:02:23.021Z,8.46
2023-02-03T14:05:03.937Z,8.08
2023-02-03T14:07:42.320Z,8.03
2023-02-03T14:10:18.245Z,8.39
2023-02-03T14:12:50.022Z,8.34
2023-02-03T14:15:32.247Z,8.40
2023-02-03T14:18:27.532Z,8.36
2023-02-03T14:21:09.119Z,8.20
2023-02-03T14:23:43.993Z,7.97
2023-02-03T14:26:26.211Z,7.92
2023-02-03T14:28:55.943Z,8.09
2023-02-03T14:31:26.598Z,8.28
2023-02-03T14:34:13.180Z,8.03
2023-02-03T14:36:47.676Z,7.94
2023-02-03T14:39:18.578Z,8.20
2023-02-03T14:42:07.601Z,7.89
2023-02-03T14:45:00.840Z,8.28
2023-02-03T14:47:52.409Z,8.18
2023-02-03T14:50:58.595Z,7.77
2023-02-03T14:53:51.550Z,7.88
2023-02-03T14:56:29.084Z,7.95
2023-02-03T14:59:04.731Z,7.85
2023-02-03T15:01:38.166Z,8.21
2023-02-03T15:04:14.217Z,8.07
2023-02-03T15:06:50.380Z,7.86
2023-02-03T15:09:48.728Z,7.79
2023-02-03T15:12:27.075Z,7.70
2023-02-03T15:15:13.022Z,7.80
2023-02-03T15:17:40.132Z,7.98
2023-02-03T15:20:25.856Z,8.11
2023-02-03T15:22:54.286Z,7.77
2023-02-03T15:25:30.485Z,7.74
2023-02-03T15:28:24.300Z,8.06
2023-02-03T15:31:15.379Z,7.89
2023-02-03T15:33:44.812Z,7.73
2023-02-03T15:36:20.838Z,7.66
2023-02-03T15:38:56.077Z,7.70
2023-02-03T15:41:25.983Z,8.08
2023-02-03T15:44:03.099Z,7.87
2023-02-03T15:46:41.013Z,8.02
2023-02-03T15:49:26.054Z,7.64
2023-02-03T15:51:59.703Z,7.73
2023-02-03T15:54:53.756Z,8.02
2023-02-03T15:57:29.343Z,7.59
2023-02-03T16:00:10.392Z,7.59
2023-02-03T16:02:44.015Z,7.59
2023-02-03T16:05:37.759Z,7.96
2023-02-03T16:08:36.346Z,7.91
2023-02-03T16:11:32.775Z,7.55
2023-02-03T16:14:04.326Z,7.46
2023-02-03T16:16:52.146Z,7.46
2023-02-03T16:19:35.656Z,7.44
2023-02-03T16:22:02.946Z,7.39
2023-02-03T16:24:45.404Z,7.44
2023-02-03T16:27:34.015Z,7.75
2023-02-03T16:30:25.867Z,7.78
2023-02-03T16:33:38.281Z,7.71
2023-02-03T16:36:31.478Z,7.25
2023-02-03T16:39:20.484Z,7.23
2023-02-03T16:42:06.211Z,7.36
2023-02-03T16:44:56.403Z,7.21
2023-02-03T16:47:51.218Z,7.26
2023-02-03T16:50:43.233Z,7.27
2023-02-03T16:53:19.985Z,7.24
2023-02-03T16:55:47.705Z,7.18
2023-02-03T16:58:15.220Z,7.18
2023-02-03T17:00:45.333Z,7.18
2023-02-03T17:03:18.152Z,7.19
2023-02-03T17:05:46.899Z,7.14
2023-02-03T17:08:15.392Z,7.31
2023-02-03T17:10:50.252Z,7.06
2023-02-03T17:13:21.585Z,7.21
2023-02-03T17:15:52.801Z,7.05
2023-02-03T17:18:20.873Z,7.03
2023-02-03T17:20:51.388Z,7.41
2023-02-03T17:23:19.038Z,7.01
2023-02-03T17:25:48.037Z,7.00
2023-02-03T17:28:16.274Z,7.02
2023-02-03T17:30:44.840Z,7.03
2023-02-03T17:33:12.726Z,7.12
2023-02-03T17:35:50.766Z,6.94
2023-02-03T17:38:23.360Z,6.87
2023-02-03T17:54:57.071Z,6.82
2023-02-03T17:57:26.882Z,6.91
2023-02-03T17:59:58.510Z,6.85
2023-02-03T18:02:29.883Z,6.73
2023-02-03T18:05:01.074Z,6.75
2023-02-03T18:07:29.285Z,6.78
2023-02-03T18:10:01.913Z,6.72
2023-02-03T18:12:30.472Z,6.75
2023-02-03T18:15:06.047Z,6.83
2023-02-03T18:17:35.956Z,6.65
2023-02-03T18:20:04.158Z,6.70
2023-02-03T18:22:32.200Z,6.67
2023-02-03T18:24:59.517Z,6.71
2023-02-03T18:27:39.165Z,6.68
2023-02-03T18:30:07.260Z,6.78
2023-02-03T18:32:34.666Z,6.81
2023-02-03T18:35:14.140Z,6.77
2023-02-03T18:37:41.006Z,6.79
2023-02-03T18:40:09.027Z,7.00
2023-02-03T18:42:36.394Z,6.87
2023-02-03T18:45:06.286Z,6.89
2023-02-03T18:47:37.682Z,6.89
2023-02-03T18:50:06.201Z,6.87
2023-02-03T18:52:36.318Z,7.07
2023-02-03T18:55:06.215Z,7.04
2023-02-03T18:57:33.327Z,7.08
2023-02-03T19:00:02.506Z,7.06
2023-02-03T19:02:34.032Z,7.27
2023-02-03T19:05:04.155Z,7.29
2023-02-03T19:07:35.742Z,7.06
2023-02-03T19:10:03.377Z,7.45
2023-02-03T19:12:30.336Z,7.31
2023-02-03T19:14:57.506Z,7.13
2023-02-03T19:17:27.506Z,7.08
2023-02-03T19:19:54.819Z,7.12
2023-02-03T19:22:21.803Z,6.98
2023-02-03T19:24:52.016Z,7.14
2023-02-03T19:27:20.041Z,7.25
2023-02-03T19:29:47.161Z,7.05
2023-02-03T19:32:17.532Z,7.15
2023-02-03T19:34:46.172Z,7.07
2023-02-03T19:37:16.312Z,7.26
2023-02-03T19:39:46.069Z,7.25
2023-02-03T19:42:13.357Z,6.93
2023-02-03T19:44:40.586Z,6.91
2023-02-03T19:47:08.857Z,7.02
2023-02-03T19:49:36.702Z,7.27
2023-02-03T19:52:04.385Z,6.87
2023-02-03T19:54:31.310Z,6.89
2023-02-03T19:56:58.246Z,7.18
2023-02-03T19:59:25.700Z,7.01
2023-02-03T20:01:52.878Z,7.09
2023-02-03T20:04:28.097Z,7.14
2023-02-03T20:06:58.097Z,7.08
2023-02-03T20:09:25.345Z,7.00
2023-02-03T20:11:52.583Z,6.90
2023-02-03T20:14:19.919Z,7.09
2023-02-03T20:16:51.232Z,6.86
2023-02-03T20:19:19.303Z,7.04
2023-02-03T20:21:46.859Z,6.87
2023-02-03T20:24:14.634Z,6.90
2023-02-03T20:26:44.967Z,7.24
2023-02-03T20:29:12.373Z,7.33
2023-02-03T20:31:39.582Z,7.28
2023-02-03T20:34:07.677Z,6.86
2023-02-03T20:36:37.233Z,6.84
2023-02-03T20:39:04.732Z,6.79
2023-02-03T20:41:31.936Z,6.83
2023-02-03T20:43:59.251Z,6.94
2023-02-03T20:46:26.234Z,6.82
2023-02-03T20:48:53.474Z,6.97
2023-02-03T20:51:30.174Z,7.11
2023-02-03T20:53:59.982Z,6.99
2023-02-03T20:56:27.155Z,6.72
2023-02-03T20:58:55.910Z,6.80
2023-02-03T21:01:24.405Z,6.75
2023-02-03T21:04:12.951Z,6.74
2023-02-03T21:06:41.867Z,7.17
2023-02-03T21:09:15.595Z,6.79
2023-02-03T21:11:44.503Z,7.15
2023-02-03T21:14:44.528Z,6.92
2023-02-03T21:17:27.945Z,6.85
2023-02-03T21:19:55.519Z,6.75
2023-02-03T21:22:27.856Z,6.71
2023-02-03T21:25:00.653Z,7.05
2023-02-03T21:27:35.759Z,6.73
2023-02-03T21:30:24.071Z,6.79
2023-02-03T21:32:53.914Z,6.81
2023-02-03T21:35:25.271Z,6.88
2023-02-03T21:38:02.289Z,6.77
2023-02-03T21:40:33.712Z,6.91
2023-02-03T21:43:03.743Z,6.79
2023-02-03T21:45:39.408Z,6.78
2023-02-03T21:48:35.208Z,7.15
2023-02-03T21:51:23.940Z,6.81
2023-02-03T21:53:59.568Z,6.81
2023-02-03T21:56:41.992Z,6.77
2023-02-03T21:59:25.088Z,6.77
2023-02-03T22:01:56.784Z,6.74
2023-02-03T22:04:28.251Z,6.80
2023-02-03T22:06:58.898Z,6.95
2023-02-03T22:09:28.163Z,7.08
2023-02-03T22:11:55.315Z,6.76
2023-02-03T22:14:22.622Z,6.71
2023-02-03T22:16:49.972Z,6.75
2023-02-03T22:19:18.050Z,6.78
2023-02-03T22:21:46.430Z,6.80
2023-02-03T22:24:13.573Z,6.73
2023-02-03T22:26:40.814Z,7.05
2023-02-03T22:29:07.924Z,7.10
2023-02-03T22:31:35.162Z,6.94
2023-02-03T22:34:06.222Z,6.71
2023-02-03T22:36:39.633Z,6.72
2023-02-03T22:39:09.466Z,6.70
2023-02-03T22:41:41.903Z,7.10
2023-02-03T22:44:08.887Z,6.88
2023-02-03T22:46:35.992Z,6.75
2023-02-03T22:49:02.843Z,7.07
2023-02-03T22:51:32.333Z,7.00
2023-02-03T22:53:59.857Z,6.68
2023-02-03T22:56:28.021Z,6.91
2023-02-03T22:58:57.603Z,6.77
2023-02-03T23:01:24.736Z,6.75
2023-02-03T23:03:52.279Z,6.65
2023-02-03T23:06:21.659Z,6.62
2023-02-03T23:08:51.893Z,6.79
2023-02-03T23:11:19.349Z,6.66
2023-02-03T23:13:48.932Z,6.90
2023-02-03T23:16:18.504Z,6.86
2023-02-03T23:18:48.255Z,6.73
2023-02-03T23:21:16.050Z,6.90
2023-02-03T23:23:43.397Z,6.81
2023-02-03T23:26:15.449Z,6.77
2023-02-03T23:28:45.375Z,6.60
2023-02-03T23:31:15.614Z,6.71
2023-02-03T23:34:06.009Z,6.95
2023-02-03T23:36:36.496Z,6.66
2023-02-03T23:39:06.850Z,6.66
2023-02-03T23:41:35.250Z,6.62
2023-02-03T23:44:02.608Z,6.83
2023-02-03T23:46:30.268Z,6.64
2023-02-03T23:48:59.034Z,6.62
2023-02-03T23:51:26.049Z,7.07
2023-02-03T23:53:54.024Z,7.10
2023-02-03T23:56:21.381Z,6.74
2023-02-03T23:58:52.824Z,6.75
